Unispirit — V2BS1 — position and weather

sailwx.info

Track history (hours):
 
Tides and Currents Weather Stations Pressure Air Temp Water Temp Dewpoint Dewpoint Depression Visibility Wind Speed Wind Dir Waves Ship Positions

Unispirit

Last reported at 2018-May-15 01:14 UTC. Time now 2018-May-24 08:28 UTC.
Position N 35°59' W 005°15'.
Warning: this ship's position is 9 days out of date.

Length 132 m; draft 8 m.

Type: Cargo ship. MMSI: 304908000.

Date/timePositionNaut miles runAvg speedWind from/ knotsBaromVisibWave heightAir tempDewpointWater temp
2018-May-15 01:14N 35°59' W 005°15'313.3
2018-May-15 01:00N 35°59' W 005°19'28710.0
2018-May-13 20:25N 38°53' W 010°06'512.9
2018-May-13 20:00N 38°58' W 010°07'612.9
2018-May-13 19:30N 39°05' W 010°08'  
2018-May-11 03:38N 49°44' W 003°31'211.3
2018-May-11 03:24N 49°45' W 003°28'511.4
2018-May-11 03:01N 49°48' W 003°22'811.4
2018-May-11 02:20N 49°51' W 003°11'411.6
2018-May-11 01:57N 49°54' W 003°05'611.9
2018-May-11 01:26N 49°57' W 002°57'1312.6
2018-May-11 00:26N 50°00' W 002°38'613.2
2018-May-11 00:00N 50°02' W 002°30'713.2
2018-May-10 23:28N 50°01' W 002°19'613.9
2018-May-10 23:00N 49°59' W 002°09'4414.2
2018-May-10 19:53N 49°45' W 001°04'512.9
2018-May-10 19:30N 49°43' W 000°57'612.4
2018-May-10 19:00N 49°41' W 000°48'612.1
2018-May-10 18:30N 49°38' W 000°39'612.1
2018-May-10 18:00N 49°36' W 000°31'611.5
2018-May-10 17:30N 49°34' W 000°23'611.5
2018-May-10 17:00N 49°32' W 000°14'611.7
2018-May-10 16:30N 49°29' W 000°06'5 9.9
2018-May-10 16:00N 49°27' E 000°01'510.4
2018-May-10 15:30N 49°26' E 000°09'510.3
2018-May-10 15:00N 49°26' E 000°16'510.8
2018-May-10 14:30N 49°27' E 000°25'510.1
2018-May-10 14:00N 49°28' E 000°32'5 9.1
2018-May-10 13:31N 49°27' E 000°39'611.2
2018-May-10 13:00N 49°31' E 000°43'5 9.9
2018-May-10 12:30N 49°28' E 000°49'5 9.1
2018-May-10 12:00N 49°24' E 000°52'510.6
2018-May-10 11:30N 49°29' E 000°53'510.1
2018-May-10 11:00N 49°24' E 000°55'4 7.2
2018-May-10 10:30N 49°22' E 000°59'5 9.0
2018-May-10 10:00N 49°26' E 001°02'1 2.5
2018-May-10 09:30N 49°26' E 001°04'0 0.0
2018-May-10 09:00N 49°26' E 001°04'0 0.0
2018-May-10 08:30N 49°26' E 001°04'0 0.0
2018-May-10 08:00N 49°26' E 001°04'0 0.0
2018-May-10 07:30N 49°26' E 001°04'0 0.0
2018-May-10 07:00N 49°26' E 001°04'0 0.0
2018-May-10 06:30N 49°26' E 001°04'0 0.0
2018-May-10 06:00N 49°26' E 001°04'0 0.0
2018-May-10 05:30N 49°26' E 001°04'0 0.0
2018-May-10 05:00N 49°26' E 001°04'0 0.0
2018-May-10 04:30N 49°26' E 001°04'0 0.0
2018-May-10 04:00N 49°26' E 001°04'0 0.0
2018-May-10 03:30N 49°26' E 001°04'0 0.0
2018-May-10 03:00N 49°26' E 001°04'0 0.0
2018-May-10 02:30N 49°26' E 001°04'0 0.0
2018-May-10 02:00N 49°26' E 001°04'0 0.0
2018-May-10 01:30N 49°26' E 001°04'0 0.0
2018-May-10 01:00N 49°26' E 001°04'0 0.0
2018-May-10 00:30N 49°26' E 001°04'0 0.0
2018-May-10 00:00N 49°26' E 001°04'0 0.0
2018-May-09 23:30N 49°26' E 001°04'0 0.0
2018-May-09 23:00N 49°26' E 001°04'0 0.0
2018-May-09 22:30N 49°26' E 001°04'0 0.0
2018-May-09 22:00N 49°26' E 001°04'0 0.0
2018-May-09 21:30N 49°26' E 001°04'0 0.0
2018-May-09 21:00N 49°26' E 001°04'0 0.0
2018-May-09 20:30N 49°26' E 001°04'0 0.0
2018-May-09 20:00N 49°26' E 001°04'0 0.0
2018-May-09 19:30N 49°26' E 001°04'0 0.0
2018-May-09 19:00N 49°26' E 001°04'0 0.0
2018-May-09 18:30N 49°26' E 001°04'0 0.0
2018-May-09 18:00N 49°26' E 001°04'0 0.0
2018-May-09 17:30N 49°26' E 001°04'0 0.0
2018-May-09 17:00N 49°26' E 001°04'0 0.0
2018-May-09 16:30N 49°26' E 001°04'0 0.0
2018-May-09 16:00N 49°26' E 001°04'0 0.0
2018-May-09 15:30N 49°26' E 001°04'0 0.0
2018-May-09 15:00N 49°26' E 001°04'0 0.0
2018-May-09 14:30N 49°26' E 001°04'0 0.0
2018-May-09 14:00N 49°26' E 001°04'0 0.0
2018-May-09 13:24N 49°26' E 001°04'0 0.0
2018-May-09 13:00N 49°26' E 001°04'0 0.0
2018-May-09 12:30N 49°26' E 001°04'0 0.0
2018-May-09 12:00N 49°26' E 001°04'0 0.0
2018-May-09 11:30N 49°26' E 001°04'0 0.0
2018-May-09 11:00N 49°26' E 001°04'0 0.0
2018-May-09 10:30N 49°26' E 001°04'0 0.0
2018-May-09 10:01N 49°26' E 001°04'0 0.0
2018-May-09 09:30N 49°26' E 001°04'0 0.0
2018-May-09 09:00N 49°26' E 001°04'0 0.0
2018-May-09 08:30N 49°26' E 001°04'0 0.0
2018-May-09 08:00N 49°26' E 001°04'0 0.0
2018-May-09 07:30N 49°26' E 001°04'0 0.0
2018-May-09 07:00N 49°26' E 001°04'0 0.0
2018-May-09 06:30N 49°26' E 001°04'0 0.0
2018-May-09 06:00N 49°26' E 001°04'0 0.0
2018-May-09 05:30N 49°26' E 001°04'0 0.0
2018-May-09 05:00N 49°26' E 001°04'0 0.0
2018-May-09 04:30N 49°26' E 001°04'0 0.0
2018-May-09 04:00N 49°26' E 001°04'0 0.0
2018-May-09 03:30N 49°26' E 001°04'0 0.0
2018-May-09 03:00N 49°26' E 001°04'0 0.0
2018-May-09 02:30N 49°26' E 001°04'0 0.0
2018-May-09 02:00N 49°26' E 001°04'0 0.0
2018-May-09 01:30N 49°26' E 001°04'0 0.0
2018-May-09 01:00N 49°26' E 001°04'0 0.0
2018-May-09 00:30N 49°26' E 001°04'0 0.0
2018-May-09 00:00N 49°26' E 001°04'0 0.0
2018-May-08 23:30N 49°26' E 001°04'0 0.0
2018-May-08 23:00N 49°26' E 001°04'0 0.0
2018-May-08 22:30N 49°26' E 001°04'0 0.0
2018-May-08 22:00N 49°26' E 001°04'0 0.0
2018-May-08 21:30N 49°26' E 001°04'0 0.0
2018-May-08 21:00N 49°26' E 001°04'0 0.0
2018-May-08 20:30N 49°26' E 001°04'0 0.0
2018-May-08 20:00N 49°26' E 001°04'0 0.0
2018-May-08 19:30N 49°26' E 001°04'0 0.0
2018-May-08 19:00N 49°26' E 001°04'0 0.0
2018-May-08 18:30N 49°26' E 001°04'0 0.0
2018-May-08 18:00N 49°26' E 001°04'0 0.0
2018-May-08 17:30N 49°26' E 001°04'0 0.0
2018-May-08 17:00N 49°26' E 001°04'0 0.0
2018-May-08 16:30N 49°26' E 001°04'0 0.0
2018-May-08 16:00N 49°26' E 001°04'0 0.0
2018-May-08 15:30N 49°26' E 001°04'0 0.0
2018-May-08 15:00N 49°26' E 001°04'0 0.0
2018-May-08 14:30N 49°26' E 001°04'0 0.0
2018-May-08 14:00N 49°26' E 001°04'0 0.0
2018-May-08 13:30N 49°26' E 001°04'0 0.0
2018-May-08 13:00N 49°26' E 001°04'0 0.0
2018-May-08 12:30N 49°26' E 001°04'0 0.0
2018-May-08 12:00N 49°26' E 001°04'0 0.0
2018-May-08 11:30N 49°26' E 001°04'0 0.0
2018-May-08 11:00N 49°26' E 001°04'0 0.0
2018-May-08 10:30N 49°26' E 001°04'0 0.0
2018-May-08 09:57N 49°26' E 001°04'0 0.0
2018-May-08 09:30N 49°26' E 001°04'0 0.0
2018-May-08 09:00N 49°26' E 001°04'0 0.0
2018-May-08 08:30N 49°26' E 001°04'0 0.0
2018-May-08 08:00N 49°26' E 001°04'0 0.0
2018-May-08 07:30N 49°26' E 001°04'0 0.0
2018-May-08 07:00N 49°26' E 001°04'0 0.0
2018-May-08 06:30N 49°26' E 001°04'0 0.0
2018-May-08 06:00N 49°26' E 001°04'0 0.0
2018-May-08 05:30N 49°26' E 001°04'0 0.0
2018-May-08 05:00N 49°26' E 001°04'0 0.0
2018-May-08 04:27N 49°26' E 001°04'0 0.0
2018-May-08 04:00N 49°26' E 001°04'0 0.0
2018-May-08 03:30N 49°26' E 001°04'0 0.0
2018-May-08 03:00N 49°26' E 001°04'0 0.0
2018-May-08 02:30N 49°26' E 001°04'0 0.0
2018-May-08 02:00N 49°26' E 001°04'0 0.0
2018-May-08 01:30N 49°26' E 001°04'0 0.0
2018-May-08 01:00N 49°26' E 001°04'0 0.0
2018-May-08 00:30N 49°26' E 001°04'0 0.0
2018-May-08 00:00N 49°26' E 001°04'0 0.0
2018-May-07 23:30N 49°26' E 001°04'0 0.0
2018-May-07 23:00N 49°26' E 001°04'0 0.0
2018-May-07 22:30N 49°26' E 001°04'0 0.0
2018-May-07 22:00N 49°26' E 001°04'0 0.0
2018-May-07 21:30N 49°26' E 001°04'0 0.0
2018-May-07 21:00N 49°26' E 001°04'0 0.0
2018-May-07 20:30N 49°26' E 001°04'0 0.0
2018-May-07 20:00N 49°26' E 001°04'0 0.0
2018-May-07 19:30N 49°26' E 001°04'0 0.0
2018-May-07 19:00N 49°26' E 001°04'0 0.0
2018-May-07 18:30N 49°26' E 001°04'0 0.0
2018-May-07 18:00N 49°26' E 001°04'0 0.0
2018-May-07 17:30N 49°26' E 001°04'0 0.0
2018-May-07 17:00N 49°26' E 001°04'0 0.0
2018-May-07 16:30N 49°26' E 001°04'0 0.0
2018-May-07 16:00N 49°26' E 001°04'0 0.0
2018-May-07 15:30N 49°26' E 001°04'0 0.0
2018-May-07 15:00N 49°26' E 001°04'0 0.0
2018-May-07 14:30N 49°26' E 001°04'0 0.0
2018-May-07 14:00N 49°26' E 001°04'0 0.0
2018-May-07 13:30N 49°26' E 001°04'0 0.0
2018-May-07 13:00N 49°26' E 001°04'0 0.0
2018-May-07 12:30N 49°26' E 001°04'0 0.0
2018-May-07 12:00N 49°26' E 001°04'0 0.0
2018-May-07 11:30N 49°26' E 001°04'0 0.0
2018-May-07 11:00N 49°26' E 001°04'0 0.0
2018-May-07 10:30N 49°26' E 001°04'0 0.0
2018-May-07 10:00N 49°26' E 001°04'0 0.0
2018-May-07 09:30N 49°26' E 001°04'0 0.0
2018-May-07 09:00N 49°26' E 001°04'0 0.0
2018-May-07 08:27N 49°26' E 001°04'0 0.0
2018-May-07 08:00N 49°26' E 001°04'0 0.0
2018-May-07 07:30N 49°26' E 001°04'0 0.0
2018-May-07 07:00N 49°26' E 001°04'0 0.0
2018-May-07 06:30N 49°26' E 001°04'0 0.0
2018-May-07 06:00N 49°26' E 001°04'0 0.0
2018-May-07 05:30N 49°26' E 001°04'0 0.0
2018-May-07 05:00N 49°26' E 001°04'0 0.0
2018-May-07 04:30N 49°26' E 001°04'0 0.0
2018-May-07 04:00N 49°26' E 001°04'0 0.0
2018-May-07 03:30N 49°26' E 001°04'0 0.0
2018-May-07 03:00N 49°26' E 001°04'0 0.0
2018-May-07 02:30N 49°26' E 001°04'0 0.0
2018-May-07 02:00N 49°26' E 001°04'0 0.0
2018-May-07 01:30N 49°26' E 001°04'0 0.0
2018-May-07 01:00N 49°26' E 001°04'0 0.0
2018-May-07 00:30N 49°26' E 001°04'0 0.0
2018-May-07 00:00N 49°26' E 001°04'0 0.0
2018-May-06 23:30N 49°26' E 001°04'0 0.0
2018-May-06 23:00N 49°26' E 001°04'0 0.0
2018-May-06 22:30N 49°26' E 001°04'0 0.0
2018-May-06 22:00N 49°26' E 001°04'0 0.0
2018-May-06 21:30N 49°26' E 001°04'0 0.0
2018-May-06 21:00N 49°26' E 001°04'0 0.0
2018-May-06 20:30N 49°26' E 001°04'0 0.0
2018-May-06 20:00N 49°26' E 001°04'0 0.0
2018-May-06 19:30N 49°26' E 001°04'0 0.0
2018-May-06 19:00N 49°26' E 001°04'0 0.0
2018-May-06 18:30N 49°26' E 001°04'0 0.0
2018-May-06 18:00N 49°26' E 001°04'0 0.0
2018-May-06 17:30N 49°26' E 001°04'0 0.0
2018-May-06 17:00N 49°26' E 001°04'0 0.0
2018-May-06 16:30N 49°26' E 001°04'0 0.0
2018-May-06 16:00N 49°26' E 001°04'0 0.0
2018-May-06 15:30N 49°26' E 001°04'0 0.0
2018-May-06 15:00N 49°26' E 001°04'0 0.0
2018-May-06 14:30N 49°26' E 001°04'0 0.0
2018-May-06 14:00N 49°26' E 001°04'0 0.0
2018-May-06 13:30N 49°26' E 001°04'0 0.0
2018-May-06 13:00N 49°26' E 001°04'0 0.0
2018-May-06 12:30N 49°26' E 001°04'0 0.0
2018-May-06 12:00N 49°26' E 001°04'0 0.0
2018-May-06 11:30N 49°26' E 001°04'0 0.0
2018-May-06 11:00N 49°26' E 001°04'0 0.0
2018-May-06 10:30N 49°26' E 001°04'0 0.0
2018-May-06 10:00N 49°26' E 001°04'0 0.0
2018-May-06 09:30N 49°26' E 001°04'0 0.0
2018-May-06 09:00N 49°26' E 001°04'0 0.0
2018-May-06 08:30N 49°26' E 001°04'0 0.0
2018-May-06 08:00N 49°26' E 001°04'0 0.0
2018-May-06 07:30N 49°26' E 001°04'0 0.0
2018-May-06 07:00N 49°26' E 001°04'0 0.0
2018-May-06 06:30N 49°26' E 001°04'0 0.0
2018-May-06 06:00N 49°26' E 001°04'0 0.0
2018-May-06 05:30N 49°26' E 001°04'0 0.0
2018-May-06 05:00N 49°26' E 001°04'0 0.0
2018-May-06 04:30N 49°26' E 001°04'0 0.0
2018-May-06 03:57N 49°26' E 001°04'0 0.0
2018-May-06 03:30N 49°26' E 001°04'0 0.0
2018-May-06 03:00N 49°26' E 001°04'0 0.0
2018-May-06 02:30N 49°26' E 001°04'0 0.0
2018-May-06 02:00N 49°26' E 001°04'0 0.0
2018-May-06 01:30N 49°26' E 001°04'0 0.0
2018-May-06 01:00N 49°26' E 001°04'0 0.0
2018-May-06 00:30N 49°26' E 001°04'0 0.0
2018-May-06 00:00N 49°26' E 001°04'0 0.0
2018-May-05 23:30N 49°26' E 001°04'0 0.0
2018-May-05 23:00N 49°26' E 001°04'0 0.0
2018-May-05 22:30N 49°26' E 001°04'0 0.0
2018-May-05 22:00N 49°26' E 001°04'0 0.0
2018-May-05 21:30N 49°26' E 001°04'0 0.0
2018-May-05 21:00N 49°26' E 001°04'0 0.0
2018-May-05 20:30N 49°26' E 001°04'0 0.0
2018-May-05 20:00N 49°26' E 001°04'0 0.0
2018-May-05 19:30N 49°26' E 001°04'0 0.0
2018-May-05 19:00N 49°26' E 001°04'0 0.0
2018-May-05 18:30N 49°26' E 001°04'0 0.0
2018-May-05 18:00N 49°26' E 001°04'0 0.0
2018-May-05 17:30N 49°26' E 001°04'0 0.0
2018-May-05 17:00N 49°26' E 001°04'0 0.0
2018-May-05 16:30N 49°26' E 001°04'0 0.0
2018-May-05 16:00N 49°26' E 001°04'0 0.0
2018-May-05 15:30N 49°26' E 001°04'0 0.0
2018-May-05 14:57N 49°26' E 001°04'0 0.0
2018-May-05 14:30N 49°26' E 001°04'0 0.0
2018-May-05 14:00N 49°26' E 001°04'0 0.0
2018-May-05 13:30N 49°26' E 001°04'0 0.0
2018-May-05 13:00N 49°26' E 001°04'0 0.0
2018-May-05 12:30N 49°26' E 001°04'0 0.0
2018-May-05 12:00N 49°26' E 001°04'0 0.0
2018-May-05 11:30N 49°26' E 001°04'0 0.0
2018-May-05 11:00N 49°26' E 001°04'0 0.0
2018-May-05 10:27N 49°26' E 001°04'0 0.0
2018-May-05 10:00N 49°26' E 001°04'0 0.0
2018-May-05 09:30N 49°26' E 001°04'0 0.0
2018-May-05 09:00N 49°26' E 001°04'0 0.0
2018-May-05 08:30N 49°26' E 001°04'0 0.0
2018-May-05 08:00N 49°26' E 001°04'0 0.0
2018-May-05 07:30N 49°26' E 001°04'0 0.0
2018-May-05 07:00N 49°26' E 001°04'0 0.0
2018-May-05 06:30N 49°26' E 001°04'0 0.0
2018-May-05 06:00N 49°26' E 001°04'0 0.0
2018-May-05 05:24N 49°26' E 001°04'0 0.0
2018-May-05 05:00N 49°26' E 001°04'0 0.0
2018-May-05 04:30N 49°26' E 001°04'0 0.0
2018-May-05 04:00N 49°26' E 001°04'0 0.0
2018-May-05 03:30N 49°26' E 001°04'0 0.0
2018-May-05 03:00N 49°26' E 001°04'0 0.0
2018-May-05 02:30N 49°26' E 001°04'0 0.0
2018-May-05 02:00N 49°26' E 001°04'0 0.0
2018-May-05 01:30N 49°26' E 001°04'  
Track history (hours):
 
Tides and Currents Weather Stations Pressure Air Temp Water Temp Dewpoint Dewpoint Depression Visibility Wind Speed Wind Dir Waves Ship Positions

Unispirit

Last reported at 2018-May-15 01:14 UTC. Time now 2018-May-24 08:28 UTC.
Position N 35°59' W 005°15'.
Warning: this ship's position is 9 days out of date.

Length 132 m; draft 8 m.

Type: Cargo ship. MMSI: 304908000.

Date/timePositionNaut miles runAvg speedWind from/ knotsBaromVisibWave heightAir tempDewpointWater temp
2018-May-15 01:14N 35°59' W 005°15'313.3
2018-May-15 01:00N 35°59' W 005°19'28710.0
2018-May-13 20:25N 38°53' W 010°06'512.9
2018-May-13 20:00N 38°58' W 010°07'612.9
2018-May-13 19:30N 39°05' W 010°08'  
2018-May-11 03:38N 49°44' W 003°31'211.3
2018-May-11 03:24N 49°45' W 003°28'511.4
2018-May-11 03:01N 49°48' W 003°22'811.4
2018-May-11 02:20N 49°51' W 003°11'411.6
2018-May-11 01:57N 49°54' W 003°05'611.9
2018-May-11 01:26N 49°57' W 002°57'1312.6
2018-May-11 00:26N 50°00' W 002°38'613.2
2018-May-11 00:00N 50°02' W 002°30'713.2
2018-May-10 23:28N 50°01' W 002°19'613.9
2018-May-10 23:00N 49°59' W 002°09'4414.2
2018-May-10 19:53N 49°45' W 001°04'512.9
2018-May-10 19:30N 49°43' W 000°57'612.4
2018-May-10 19:00N 49°41' W 000°48'612.1
2018-May-10 18:30N 49°38' W 000°39'612.1
2018-May-10 18:00N 49°36' W 000°31'611.5
2018-May-10 17:30N 49°34' W 000°23'611.5
2018-May-10 17:00N 49°32' W 000°14'611.7
2018-May-10 16:30N 49°29' W 000°06'5 9.9
2018-May-10 16:00N 49°27' E 000°01'510.4
2018-May-10 15:30N 49°26' E 000°09'510.3
2018-May-10 15:00N 49°26' E 000°16'510.8
2018-May-10 14:30N 49°27' E 000°25'510.1
2018-May-10 14:00N 49°28' E 000°32'5 9.1
2018-May-10 13:31N 49°27' E 000°39'611.2
2018-May-10 13:00N 49°31' E 000°43'5 9.9
2018-May-10 12:30N 49°28' E 000°49'5 9.1
2018-May-10 12:00N 49°24' E 000°52'510.6
2018-May-10 11:30N 49°29' E 000°53'510.1
2018-May-10 11:00N 49°24' E 000°55'4 7.2
2018-May-10 10:30N 49°22' E 000°59'5 9.0
2018-May-10 10:00N 49°26' E 001°02'1 2.5
2018-May-10 09:30N 49°26' E 001°04'0 0.0
2018-May-10 09:00N 49°26' E 001°04'0 0.0
2018-May-10 08:30N 49°26' E 001°04'0 0.0
2018-May-10 08:00N 49°26' E 001°04'0 0.0
2018-May-10 07:30N 49°26' E 001°04'0 0.0
2018-May-10 07:00N 49°26' E 001°04'0 0.0
2018-May-10 06:30N 49°26' E 001°04'0 0.0
2018-May-10 06:00N 49°26' E 001°04'0 0.0
2018-May-10 05:30N 49°26' E 001°04'0 0.0
2018-May-10 05:00N 49°26' E 001°04'0 0.0
2018-May-10 04:30N 49°26' E 001°04'0 0.0
2018-May-10 04:00N 49°26' E 001°04'0 0.0
2018-May-10 03:30N 49°26' E 001°04'0 0.0
2018-May-10 03:00N 49°26' E 001°04'0 0.0
2018-May-10 02:30N 49°26' E 001°04'0 0.0
2018-May-10 02:00N 49°26' E 001°04'0 0.0
2018-May-10 01:30N 49°26' E 001°04'0 0.0
2018-May-10 01:00N 49°26' E 001°04'0 0.0
2018-May-10 00:30N 49°26' E 001°04'0 0.0
2018-May-10 00:00N 49°26' E 001°04'0 0.0
2018-May-09 23:30N 49°26' E 001°04'0 0.0
2018-May-09 23:00N 49°26' E 001°04'0 0.0
2018-May-09 22:30N 49°26' E 001°04'0 0.0
2018-May-09 22:00N 49°26' E 001°04'0 0.0
2018-May-09 21:30N 49°26' E 001°04'0 0.0
2018-May-09 21:00N 49°26' E 001°04'0 0.0
2018-May-09 20:30N 49°26' E 001°04'0 0.0
2018-May-09 20:00N 49°26' E 001°04'0 0.0
2018-May-09 19:30N 49°26' E 001°04'0 0.0
2018-May-09 19:00N 49°26' E 001°04'0 0.0
2018-May-09 18:30N 49°26' E 001°04'0 0.0
2018-May-09 18:00N 49°26' E 001°04'0 0.0
2018-May-09 17:30N 49°26' E 001°04'0 0.0
2018-May-09 17:00N 49°26' E 001°04'0 0.0
2018-May-09 16:30N 49°26' E 001°04'0 0.0
2018-May-09 16:00N 49°26' E 001°04'0 0.0
2018-May-09 15:30N 49°26' E 001°04'0 0.0
2018-May-09 15:00N 49°26' E 001°04'0 0.0
2018-May-09 14:30N 49°26' E 001°04'0 0.0
2018-May-09 14:00N 49°26' E 001°04'0 0.0
2018-May-09 13:24N 49°26' E 001°04'0 0.0
2018-May-09 13:00N 49°26' E 001°04'0 0.0
2018-May-09 12:30N 49°26' E 001°04'0 0.0
2018-May-09 12:00N 49°26' E 001°04'0 0.0
2018-May-09 11:30N 49°26' E 001°04'0 0.0
2018-May-09 11:00N 49°26' E 001°04'0 0.0
2018-May-09 10:30N 49°26' E 001°04'0 0.0
2018-May-09 10:01N 49°26' E 001°04'0 0.0
2018-May-09 09:30N 49°26' E 001°04'0 0.0
2018-May-09 09:00N 49°26' E 001°04'0 0.0
2018-May-09 08:30N 49°26' E 001°04'0 0.0
2018-May-09 08:00N 49°26' E 001°04'0 0.0
2018-May-09 07:30N 49°26' E 001°04'0 0.0
2018-May-09 07:00N 49°26' E 001°04'0 0.0
2018-May-09 06:30N 49°26' E 001°04'0 0.0
2018-May-09 06:00N 49°26' E 001°04'0 0.0
2018-May-09 05:30N 49°26' E 001°04'0 0.0
2018-May-09 05:00N 49°26' E 001°04'0 0.0
2018-May-09 04:30N 49°26' E 001°04'0 0.0
2018-May-09 04:00N 49°26' E 001°04'0 0.0
2018-May-09 03:30N 49°26' E 001°04'0 0.0
2018-May-09 03:00N 49°26' E 001°04'0 0.0
2018-May-09 02:30N 49°26' E 001°04'0 0.0
2018-May-09 02:00N 49°26' E 001°04'0 0.0
2018-May-09 01:30N 49°26' E 001°04'0 0.0
2018-May-09 01:00N 49°26' E 001°04'0 0.0
2018-May-09 00:30N 49°26' E 001°04'0 0.0
2018-May-09 00:00N 49°26' E 001°04'0 0.0
2018-May-08 23:30N 49°26' E 001°04'0 0.0
2018-May-08 23:00N 49°26' E 001°04'0 0.0
2018-May-08 22:30N 49°26' E 001°04'0 0.0
2018-May-08 22:00N 49°26' E 001°04'0 0.0
2018-May-08 21:30N 49°26' E 001°04'0 0.0
2018-May-08 21:00N 49°26' E 001°04'0 0.0
2018-May-08 20:30N 49°26' E 001°04'0 0.0
2018-May-08 20:00N 49°26' E 001°04'0 0.0
2018-May-08 19:30N 49°26' E 001°04'0 0.0
2018-May-08 19:00N 49°26' E 001°04'0 0.0
2018-May-08 18:30N 49°26' E 001°04'0 0.0
2018-May-08 18:00N 49°26' E 001°04'0 0.0
2018-May-08 17:30N 49°26' E 001°04'0 0.0
2018-May-08 17:00N 49°26' E 001°04'0 0.0
2018-May-08 16:30N 49°26' E 001°04'0 0.0
2018-May-08 16:00N 49°26' E 001°04'0 0.0
2018-May-08 15:30N 49°26' E 001°04'0 0.0
2018-May-08 15:00N 49°26' E 001°04'0 0.0
2018-May-08 14:30N 49°26' E 001°04'0 0.0
2018-May-08 14:00N 49°26' E 001°04'0 0.0
2018-May-08 13:30N 49°26' E 001°04'0 0.0
2018-May-08 13:00N 49°26' E 001°04'0 0.0
2018-May-08 12:30N 49°26' E 001°04'0 0.0
2018-May-08 12:00N 49°26' E 001°04'0 0.0
2018-May-08 11:30N 49°26' E 001°04'0 0.0
2018-May-08 11:00N 49°26' E 001°04'0 0.0
2018-May-08 10:30N 49°26' E 001°04'0 0.0
2018-May-08 09:57N 49°26' E 001°04'0 0.0
2018-May-08 09:30N 49°26' E 001°04'0 0.0
2018-May-08 09:00N 49°26' E 001°04'0 0.0
2018-May-08 08:30N 49°26' E 001°04'0 0.0
2018-May-08 08:00N 49°26' E 001°04'0 0.0
2018-May-08 07:30N 49°26' E 001°04'0 0.0
2018-May-08 07:00N 49°26' E 001°04'0 0.0
2018-May-08 06:30N 49°26' E 001°04'0 0.0
2018-May-08 06:00N 49°26' E 001°04'0 0.0
2018-May-08 05:30N 49°26' E 001°04'0 0.0
2018-May-08 05:00N 49°26' E 001°04'0 0.0
2018-May-08 04:27N 49°26' E 001°04'0 0.0
2018-May-08 04:00N 49°26' E 001°04'0 0.0
2018-May-08 03:30N 49°26' E 001°04'0 0.0
2018-May-08 03:00N 49°26' E 001°04'0 0.0
2018-May-08 02:30N 49°26' E 001°04'0 0.0
2018-May-08 02:00N 49°26' E 001°04'0 0.0
2018-May-08 01:30N 49°26' E 001°04'0 0.0
2018-May-08 01:00N 49°26' E 001°04'0 0.0
2018-May-08 00:30N 49°26' E 001°04'0 0.0
2018-May-08 00:00N 49°26' E 001°04'0 0.0
2018-May-07 23:30N 49°26' E 001°04'0 0.0
2018-May-07 23:00N 49°26' E 001°04'0 0.0
2018-May-07 22:30N 49°26' E 001°04'0 0.0
2018-May-07 22:00N 49°26' E 001°04'0 0.0
2018-May-07 21:30N 49°26' E 001°04'0 0.0
2018-May-07 21:00N 49°26' E 001°04'0 0.0
2018-May-07 20:30N 49°26' E 001°04'0 0.0
2018-May-07 20:00N 49°26' E 001°04'0 0.0
2018-May-07 19:30N 49°26' E 001°04'0 0.0
2018-May-07 19:00N 49°26' E 001°04'0 0.0
2018-May-07 18:30N 49°26' E 001°04'0 0.0
2018-May-07 18:00N 49°26' E 001°04'0 0.0
2018-May-07 17:30N 49°26' E 001°04'0 0.0
2018-May-07 17:00N 49°26' E 001°04'0 0.0
2018-May-07 16:30N 49°26' E 001°04'0 0.0
2018-May-07 16:00N 49°26' E 001°04'0 0.0
2018-May-07 15:30N 49°26' E 001°04'0 0.0
2018-May-07 15:00N 49°26' E 001°04'0 0.0
2018-May-07 14:30N 49°26' E 001°04'0 0.0
2018-May-07 14:00N 49°26' E 001°04'0 0.0
2018-May-07 13:30N 49°26' E 001°04'0 0.0
2018-May-07 13:00N 49°26' E 001°04'0 0.0
2018-May-07 12:30N 49°26' E 001°04'0 0.0
2018-May-07 12:00N 49°26' E 001°04'0 0.0
2018-May-07 11:30N 49°26' E 001°04'0 0.0
2018-May-07 11:00N 49°26' E 001°04'0 0.0
2018-May-07 10:30N 49°26' E 001°04'0 0.0
2018-May-07 10:00N 49°26' E 001°04'0 0.0
2018-May-07 09:30N 49°26' E 001°04'0 0.0
2018-May-07 09:00N 49°26' E 001°04'0 0.0
2018-May-07 08:27N 49°26' E 001°04'0 0.0
2018-May-07 08:00N 49°26' E 001°04'0 0.0
2018-May-07 07:30N 49°26' E 001°04'0 0.0
2018-May-07 07:00N 49°26' E 001°04'0 0.0
2018-May-07 06:30N 49°26' E 001°04'0 0.0
2018-May-07 06:00N 49°26' E 001°04'0 0.0
2018-May-07 05:30N 49°26' E 001°04'0 0.0
2018-May-07 05:00N 49°26' E 001°04'0 0.0
2018-May-07 04:30N 49°26' E 001°04'0 0.0
2018-May-07 04:00N 49°26' E 001°04'0 0.0
2018-May-07 03:30N 49°26' E 001°04'0 0.0
2018-May-07 03:00N 49°26' E 001°04'0 0.0
2018-May-07 02:30N 49°26' E 001°04'0 0.0
2018-May-07 02:00N 49°26' E 001°04'0 0.0
2018-May-07 01:30N 49°26' E 001°04'0 0.0
2018-May-07 01:00N 49°26' E 001°04'0 0.0
2018-May-07 00:30N 49°26' E 001°04'0 0.0
2018-May-07 00:00N 49°26' E 001°04'0 0.0
2018-May-06 23:30N 49°26' E 001°04'0 0.0
2018-May-06 23:00N 49°26' E 001°04'0 0.0
2018-May-06 22:30N 49°26' E 001°04'0 0.0
2018-May-06 22:00N 49°26' E 001°04'0 0.0
2018-May-06 21:30N 49°26' E 001°04'0 0.0
2018-May-06 21:00N 49°26' E 001°04'0 0.0
2018-May-06 20:30N 49°26' E 001°04'0 0.0
2018-May-06 20:00N 49°26' E 001°04'0 0.0
2018-May-06 19:30N 49°26' E 001°04'0 0.0
2018-May-06 19:00N 49°26' E 001°04'0 0.0
2018-May-06 18:30N 49°26' E 001°04'0 0.0
2018-May-06 18:00N 49°26' E 001°04'0 0.0
2018-May-06 17:30N 49°26' E 001°04'0 0.0
2018-May-06 17:00N 49°26' E 001°04'0 0.0
2018-May-06 16:30N 49°26' E 001°04'0 0.0
2018-May-06 16:00N 49°26' E 001°04'0 0.0
2018-May-06 15:30N 49°26' E 001°04'0 0.0
2018-May-06 15:00N 49°26' E 001°04'0 0.0
2018-May-06 14:30N 49°26' E 001°04'0 0.0
2018-May-06 14:00N 49°26' E 001°04'0 0.0
2018-May-06 13:30N 49°26' E 001°04'0 0.0
2018-May-06 13:00N 49°26' E 001°04'0 0.0
2018-May-06 12:30N 49°26' E 001°04'0 0.0
2018-May-06 12:00N 49°26' E 001°04'0 0.0
2018-May-06 11:30N 49°26' E 001°04'0 0.0
2018-May-06 11:00N 49°26' E 001°04'0 0.0
2018-May-06 10:30N 49°26' E 001°04'0 0.0
2018-May-06 10:00N 49°26' E 001°04'0 0.0
2018-May-06 09:30N 49°26' E 001°04'0 0.0
2018-May-06 09:00N 49°26' E 001°04'0 0.0
2018-May-06 08:30N 49°26' E 001°04'0 0.0
2018-May-06 08:00N 49°26' E 001°04'0 0.0
2018-May-06 07:30N 49°26' E 001°04'0 0.0
2018-May-06 07:00N 49°26' E 001°04'0 0.0
2018-May-06 06:30N 49°26' E 001°04'0 0.0
2018-May-06 06:00N 49°26' E 001°04'0 0.0
2018-May-06 05:30N 49°26' E 001°04'0 0.0
2018-May-06 05:00N 49°26' E 001°04'0 0.0
2018-May-06 04:30N 49°26' E 001°04'0 0.0
2018-May-06 03:57N 49°26' E 001°04'0 0.0
2018-May-06 03:30N 49°26' E 001°04'0 0.0
2018-May-06 03:00N 49°26' E 001°04'0 0.0
2018-May-06 02:30N 49°26' E 001°04'0 0.0
2018-May-06 02:00N 49°26' E 001°04'0 0.0
2018-May-06 01:30N 49°26' E 001°04'0 0.0
2018-May-06 01:00N 49°26' E 001°04'0 0.0
2018-May-06 00:30N 49°26' E 001°04'0 0.0
2018-May-06 00:00N 49°26' E 001°04'0 0.0
2018-May-05 23:30N 49°26' E 001°04'0 0.0
2018-May-05 23:00N 49°26' E 001°04'0 0.0
2018-May-05 22:30N 49°26' E 001°04'0 0.0
2018-May-05 22:00N 49°26' E 001°04'0 0.0
2018-May-05 21:30N 49°26' E 001°04'0 0.0
2018-May-05 21:00N 49°26' E 001°04'0 0.0
2018-May-05 20:30N 49°26' E 001°04'0 0.0
2018-May-05 20:00N 49°26' E 001°04'0 0.0
2018-May-05 19:30N 49°26' E 001°04'0 0.0
2018-May-05 19:00N 49°26' E 001°04'0 0.0
2018-May-05 18:30N 49°26' E 001°04'0 0.0
2018-May-05 18:00N 49°26' E 001°04'0 0.0
2018-May-05 17:30N 49°26' E 001°04'0 0.0
2018-May-05 17:00N 49°26' E 001°04'0 0.0
2018-May-05 16:30N 49°26' E 001°04'0 0.0
2018-May-05 16:00N 49°26' E 001°04'0 0.0
2018-May-05 15:30N 49°26' E 001°04'0 0.0
2018-May-05 14:57N 49°26' E 001°04'0 0.0
2018-May-05 14:30N 49°26' E 001°04'0 0.0
2018-May-05 14:00N 49°26' E 001°04'0 0.0
2018-May-05 13:30N 49°26' E 001°04'0 0.0
2018-May-05 13:00N 49°26' E 001°04'0 0.0
2018-May-05 12:30N 49°26' E 001°04'0 0.0
2018-May-05 12:00N 49°26' E 001°04'0 0.0
2018-May-05 11:30N 49°26' E 001°04'0 0.0
2018-May-05 11:00N 49°26' E 001°04'0 0.0
2018-May-05 10:27N 49°26' E 001°04'0 0.0
2018-May-05 10:00N 49°26' E 001°04'0 0.0
2018-May-05 09:30N 49°26' E 001°04'0 0.0
2018-May-05 09:00N 49°26' E 001°04'0 0.0
2018-May-05 08:30N 49°26' E 001°04'0 0.0
2018-May-05 08:00N 49°26' E 001°04'0 0.0
2018-May-05 07:30N 49°26' E 001°04'0 0.0
2018-May-05 07:00N 49°26' E 001°04'0 0.0
2018-May-05 06:30N 49°26' E 001°04'0 0.0
2018-May-05 06:00N 49°26' E 001°04'0 0.0
2018-May-05 05:24N 49°26' E 001°04'0 0.0
2018-May-05 05:00N 49°26' E 001°04'0 0.0
2018-May-05 04:30N 49°26' E 001°04'0 0.0
2018-May-05 04:00N 49°26' E 001°04'0 0.0
2018-May-05 03:30N 49°26' E 001°04'0 0.0
2018-May-05 03:00N 49°26' E 001°04'0 0.0
2018-May-05 02:30N 49°26' E 001°04'0 0.0
2018-May-05 02:00N 49°26' E 001°04'0 0.0
2018-May-05 01:30N 49°26' E 001°04'  

Dump ship's entire track history